Time;durP1;ratioP1;P1;durP2;ratioP2;P2;SDS_P1;SDS_P2;PMS_P1;PMS_P2;Temp;Humidity;BMP_temperature;BMP_pressure;BME280_temperature;BME280_humidity;BME280_pressure;Samples;Min_cycle;Max_cycle;Signal;HPM_P1;HPM_P2
2024/01/25 00:00:51;;;;;;;3.08;1.40;;;19.50;53.60;;;;;;5066115;28;45313;-63
2024/01/25 00:03:18;;;;;;;3.30;1.20;;;19.40;53.50;;;;;;5065772;28;46339;-62
2024/01/25 00:05:44;;;;;;;1.27;1.02;;;19.40;53.50;;;;;;5065758;28;45253;-63
2024/01/25 00:08:11;;;;;;;1.85;1.15;;;19.40;53.50;;;;;;5065867;28;45384;-63
2024/01/25 00:10:39;;;;;;;2.70;1.40;;;19.40;53.60;;;;;;5065897;28;45368;-63
2024/01/25 00:13:06;;;;;;;3.28;1.60;;;19.40;53.60;;;;;;5065556;28;45230;-63
2024/01/25 00:15:33;;;;;;;2.65;1.20;;;19.40;53.50;;;;;;5065784;28;45261;-64
2024/01/25 00:18:00;;;;;;;3.78;1.20;;;19.30;53.50;;;;;;5065809;28;45450;-63
2024/01/25 00:20:27;;;;;;;1.95;1.30;;;19.30;53.50;;;;;;5065843;28;45401;-62
2024/01/25 00:22:54;;;;;;;1.77;1.20;;;19.30;53.50;;;;;;5065461;28;45315;-62
2024/01/25 00:25:20;;;;;;;2.78;1.50;;;19.30;53.60;;;;;;5074581;28;45202;-63
2024/01/25 00:27:49;;;;;;;1.90;1.10;;;19.30;53.50;;;;;;5085887;28;45189;-63
2024/01/25 00:30:16;;;;;;;2.20;1.30;;;19.30;53.50;;;;;;5085972;28;45503;-63
2024/01/25 00:32:42;;;;;;;1.58;1.20;;;19.20;53.50;;;;;;5085613;28;45291;-63
2024/01/25 00:35:13;;;;;;;2.63;1.52;;;19.20;53.40;;;;;;5085727;28;45293;-63
2024/01/25 00:37:40;;;;;;;0.98;0.93;;;19.20;53.50;;;;;;5085798;28;45327;-63
2024/01/25 00:40:08;;;;;;;1.10;1.00;;;19.20;53.50;;;;;;5085960;28;45355;-62
2024/01/25 00:42:35;;;;;;;3.22;1.20;;;19.20;53.60;;;;;;5085313;28;48739;-63
2024/01/25 00:45:04;;;;;;;1.25;1.13;;;19.10;53.60;;;;;;5085682;28;45157;-63
2024/01/25 00:47:32;;;;;;;2.75;1.27;;;19.10;53.60;;;;;;5106008;27;45301;-63
2024/01/25 00:49:59;;;;;;;1.90;1.10;;;19.10;53.60;;;;;;5106182;27;45501;-63
2024/01/25 00:52:26;;;;;;;2.00;1.10;;;19.10;53.60;;;;;;5105912;27;46366;-63
2024/01/25 00:54:54;;;;;;;4.28;1.02;;;19.00;53.60;;;;;;5105992;27;45274;-63
2024/01/25 00:57:23;;;;;;;2.15;1.10;;;19.00;53.50;;;;;;5106134;27;45378;-63
2024/01/25 00:59:50;;;;;;;1.33;1.10;;;19.00;53.60;;;;;;5108960;27;45493;-63
2024/01/25 01:02:18;;;;;;;1.77;1.00;;;19.00;53.60;;;;;;5109407;27;45355;-62
2024/01/25 01:04:46;;;;;;;4.60;1.27;;;18.90;53.60;;;;;;5109525;27;45286;-63
2024/01/25 01:07:13;;;;;;;1.70;1.00;;;18.90;53.50;;;;;;5109595;27;45231;-63
2024/01/25 01:09:40;;;;;;;3.00;0.88;;;18.90;53.60;;;;;;5109521;27;45486;-62
2024/01/25 01:12:07;;;;;;;0.95;0.85;;;18.90;53.60;;;;;;5109253;27;45292;-63
2024/01/25 01:14:34;;;;;;;1.70;1.05;;;18.80;53.60;;;;;;5109415;27;45169;-63
2024/01/25 01:17:01;;;;;;;1.33;0.95;;;18.80;53.60;;;;;;5109505;27;45423;-63
2024/01/25 01:19:29;;;;;;;1.70;1.10;;;18.80;53.60;;;;;;5109442;27;45419;-62
2024/01/25 01:21:56;;;;;;;3.72;1.20;;;18.80;53.60;;;;;;5109071;27;46290;-63
2024/01/25 01:24:23;;;;;;;0.98;0.90;;;18.80;53.60;;;;;;5108057;27;45231;-63
2024/01/25 01:26:50;;;;;;;2.85;1.23;;;18.80;53.70;;;;;;5088721;28;45173;-62
2024/01/25 01:29:17;;;;;;;2.90;0.95;;;18.80;53.60;;;;;;5088726;28;45478;-63
2024/01/25 01:31:44;;;;;;;0.93;0.93;;;18.80;53.60;;;;;;5108057;27;45786;-63
2024/01/25 01:34:12;;;;;;;1.67;1.10;;;18.70;53.50;;;;;;5109118;27;45312;-62
2024/01/25 01:36:40;;;;;;;2.42;1.00;;;18.70;53.60;;;;;;5109095;27;45149;-63
2024/01/25 01:39:07;;;;;;;3.33;0.95;;;18.70;53.60;;;;;;5109203;27;45345;-63
2024/01/25 01:41:34;;;;;;;1.30;0.85;;;18.70;53.70;;;;;;5108510;27;46276;-63
2024/01/25 01:44:01;;;;;;;0.82;0.75;;;18.70;53.60;;;;;;5108904;27;45414;-62
2024/01/25 01:46:32;;;;;;;1.70;0.88;;;18.60;53.50;;;;;;5108934;27;45240;-63
2024/01/25 01:48:59;;;;;;;1.42;1.00;;;18.60;53.60;;;;;;5109109;27;45341;-62
2024/01/25 01:51:26;;;;;;;1.58;1.00;;;18.60;53.50;;;;;;5108571;27;46698;-63
2024/01/25 01:53:54;;;;;;;1.77;1.05;;;18.60;53.70;;;;;;5108772;27;45149;-63
2024/01/25 01:56:21;;;;;;;1.63;1.10;;;18.60;54.10;;;;;;5108803;27;45390;-63
2024/01/25 01:58:48;;;;;;;1.75;0.90;;;18.60;53.60;;;;;;5108930;27;45411;-63
2024/01/25 02:01:15;;;;;;;3.67;1.25;;;18.60;53.60;;;;;;5104747;27;45437;-63
2024/01/25 02:03:42;;;;;;;2.20;0.73;;;18.50;53.50;;;;;;5088062;28;45234;-63
2024/01/25 02:06:09;;;;;;;1.48;0.90;;;18.50;53.50;;;;;;5088071;28;45196;-63
2024/01/25 02:08:35;;;;;;;0.98;0.85;;;18.50;53.50;;;;;;5088349;28;45452;-63
2024/01/25 02:11:05;;;;;;;1.85;0.85;;;18.50;53.50;;;;;;5086332;27;47248;-63
2024/01/25 02:13:31;;;;;;;1.98;1.25;;;18.50;53.50;;;;;;5087913;28;45254;-63
2024/01/25 02:15:58;;;;;;;0.90;0.70;;;18.50;53.60;;;;;;5087924;28;45272;-63
2024/01/25 02:18:25;;;;;;;1.48;0.80;;;18.40;53.50;;;;;;5088223;28;45124;-63
2024/01/25 02:20:52;;;;;;;1.40;0.70;;;18.40;53.50;;;;;;5087562;28;46404;-63
2024/01/25 02:23:20;;;;;;;1.60;0.90;;;18.40;53.60;;;;;;5087746;28;45323;-63
2024/01/25 02:25:47;;;;;;;1.67;0.90;;;18.40;53.60;;;;;;5087971;28;45208;-63
2024/01/25 02:28:14;;;;;;;1.63;0.90;;;18.40;53.60;;;;;;5087921;28;45310;-63
2024/01/25 02:30:41;;;;;;;0.90;0.90;;;18.40;53.60;;;;;;5087620;28;46352;-62
2024/01/25 02:33:07;;;;;;;1.83;0.90;;;18.40;53.60;;;;;;5087569;28;45378;-63
2024/01/25 02:35:34;;;;;;;1.05;0.73;;;18.40;53.60;;;;;;5087858;28;45388;-62
2024/01/25 02:38:01;;;;;;;0.80;0.75;;;18.30;53.60;;;;;;5087746;28;45312;-62
2024/01/25 02:40:29;;;;;;;1.30;0.98;;;18.30;53.60;;;;;;5087467;28;45235;-62
2024/01/25 02:42:56;;;;;;;0.95;0.80;;;18.30;54.30;;;;;;5087455;28;45270;-62
2024/01/25 02:45:23;;;;;;;0.82;0.82;;;18.30;53.60;;;;;;5087639;28;45288;-62
2024/01/25 02:47:50;;;;;;;2.20;0.88;;;18.30;53.70;;;;;;5087533;28;45410;-61
2024/01/25 02:50:17;;;;;;;2.08;0.80;;;18.30;53.60;;;;;;5078713;28;46484;-63
2024/01/25 02:52:44;;;;;;;2.28;0.80;;;18.30;53.60;;;;;;5087347;28;45282;-62
2024/01/25 02:55:10;;;;;;;2.80;0.90;;;18.20;53.60;;;;;;5087246;28;45300;-62
2024/01/25 02:57:39;;;;;;;1.80;0.90;;;18.20;53.60;;;;;;5087444;28;45415;-62
2024/01/25 03:00:07;;;;;;;0.60;0.60;;;18.20;53.60;;;;;;5087036;28;45443;-63
2024/01/25 03:02:34;;;;;;;0.90;0.90;;;18.20;53.60;;;;;;5087097;28;45224;-62
2024/01/25 03:05:00;;;;;;;1.80;0.95;;;18.20;53.60;;;;;;5087194;28;45155;-62
2024/01/25 03:07:27;;;;;;;1.42;0.90;;;18.20;53.60;;;;;;5087232;28;45351;-62
2024/01/25 03:09:54;;;;;;;0.77;0.77;;;18.20;53.60;;;;;;5086764;28;46724;-63
2024/01/25 03:12:21;;;;;;;1.17;0.80;;;18.20;53.50;;;;;;5087135;28;45296;-62
2024/01/25 03:14:49;;;;;;;0.85;0.65;;;18.20;53.60;;;;;;5087055;28;45263;-62
2024/01/25 03:17:16;;;;;;;0.88;0.85;;;18.20;53.60;;;;;;5087185;28;45156;-62
2024/01/25 03:19:43;;;;;;;0.90;0.80;;;18.10;53.60;;;;;;5086748;28;47259;-62
2024/01/25 03:22:10;;;;;;;0.63;0.60;;;18.10;53.50;;;;;;5086110;27;45402;-62
2024/01/25 03:24:38;;;;;;;0.57;0.50;;;18.10;53.50;;;;;;5086938;28;45323;-62
2024/01/25 03:27:05;;;;;;;1.67;1.00;;;18.10;53.50;;;;;;5087006;28;45141;-62
2024/01/25 03:29:32;;;;;;;1.73;0.90;;;18.10;53.50;;;;;;5082449;28;46365;-63
2024/01/25 03:32:00;;;;;;;1.35;0.90;;;18.10;53.60;;;;;;5084327;28;45409;-63
2024/01/25 03:34:27;;;;;;;3.08;0.90;;;18.10;53.60;;;;;;5086724;28;45328;-62
2024/01/25 03:36:54;;;;;;;1.10;0.60;;;18.00;53.50;;;;;;5087004;28;45411;-62
2024/01/25 03:39:21;;;;;;;0.73;0.63;;;18.00;53.50;;;;;;5086436;28;46367;-63
2024/01/25 03:41:47;;;;;;;0.60;0.60;;;18.00;53.60;;;;;;5086436;28;45435;-62
2024/01/25 03:44:14;;;;;;;0.75;0.73;;;18.00;53.60;;;;;;5086610;28;45310;-62
2024/01/25 03:46:41;;;;;;;1.83;0.82;;;18.00;53.60;;;;;;5086781;28;45355;-62
2024/01/25 03:49:09;;;;;;;1.25;0.75;;;18.00;53.60;;;;;;5086581;28;46299;-62
2024/01/25 03:51:37;;;;;;;0.80;0.80;;;18.00;53.60;;;;;;5086454;28;45280;-64
2024/01/25 03:54:03;;;;;;;0.70;0.70;;;18.00;53.60;;;;;;5086550;28;45507;-62
2024/01/25 03:56:30;;;;;;;1.95;0.75;;;18.00;53.60;;;;;;5086676;28;45387;-62
2024/01/25 03:58:57;;;;;;;1.17;0.57;;;17.90;53.60;;;;;;5086271;28;46281;-62
2024/01/25 04:01:24;;;;;;;0.68;0.68;;;17.90;53.50;;;;;;5086161;28;45188;-62
2024/01/25 04:03:51;;;;;;;0.90;0.63;;;17.90;53.60;;;;;;5086369;28;45204;-62
2024/01/25 04:06:19;;;;;;;0.63;0.63;;;17.90;53.60;;;;;;5086427;28;45510;-62
2024/01/25 04:08:46;;;;;;;1.15;0.70;;;17.90;53.70;;;;;;5086128;28;45463;-63
2024/01/25 04:11:13;;;;;;;0.47;0.47;;;17.90;53.70;;;;;;5085914;28;45234;-62
2024/01/25 04:13:41;;;;;;;1.05;0.68;;;18.00;53.60;;;;;;5086155;28;45245;-62
2024/01/25 04:16:08;;;;;;;1.17;0.70;;;18.00;53.50;;;;;;5086119;28;45315;-62
2024/01/25 04:18:34;;;;;;;0.77;0.60;;;18.10;53.40;;;;;;5085954;28;45481;-62
2024/01/25 04:21:01;;;;;;;1.17;0.80;;;18.20;53.20;;;;;;5085884;28;46716;-63
2024/01/25 04:23:29;;;;;;;0.75;0.50;;;18.20;52.90;;;;;;5086129;28;45265;-66
2024/01/25 04:25:56;;;;;;;1.05;0.55;;;18.30;53.20;;;;;;5086196;28;45177;-62
2024/01/25 04:28:23;;;;;;;1.40;0.80;;;18.40;52.40;;;;;;5085714;28;46285;-62
2024/01/25 04:30:50;;;;;;;0.70;0.70;;;18.50;52.40;;;;;;5085625;28;45377;-62
2024/01/25 04:33:17;;;;;;;0.50;0.50;;;18.60;52.00;;;;;;5086415;27;45530;-63
2024/01/25 04:35:45;;;;;;;1.73;0.70;;;18.70;51.90;;;;;;5089768;28;45173;-62
2024/01/25 04:38:12;;;;;;;0.55;0.52;;;18.70;51.60;;;;;;5089237;28;46986;-61
2024/01/25 04:40:40;;;;;;;2.03;0.60;;;18.80;51.50;;;;;;5088896;28;45321;-62
2024/01/25 04:43:07;;;;;;;0.60;0.60;;;18.90;51.30;;;;;;5089446;28;45349;-62
2024/01/25 04:45:33;;;;;;;0.65;0.65;;;19.00;51.10;;;;;;5089581;28;45424;-62
2024/01/25 04:48:00;;;;;;;1.30;0.90;;;19.10;51.00;;;;;;5089066;28;45204;-62
2024/01/25 04:50:27;;;;;;;0.88;0.70;;;19.10;50.90;;;;;;5089098;28;45277;-62
2024/01/25 04:52:54;;;;;;;0.40;0.40;;;19.10;50.70;;;;;;5089366;28;45352;-63
2024/01/25 04:55:21;;;;;;;1.33;0.70;;;19.20;50.60;;;;;;5089344;28;45435;-62
2024/01/25 04:57:53;;;;;;;1.65;0.50;;;19.20;50.50;;;;;;5089003;28;46393;-62
2024/01/25 05:00:20;;;;;;;0.60;0.60;;;19.30;50.40;;;;;;5088865;28;45450;-63
2024/01/25 05:02:46;;;;;;;0.55;0.55;;;19.30;50.20;;;;;;5089279;28;45262;-62
2024/01/25 05:05:13;;;;;;;1.63;0.60;;;19.30;50.20;;;;;;5089225;28;45396;-62
2024/01/25 05:07:40;;;;;;;0.60;0.60;;;19.40;50.20;;;;;;5088762;28;45283;-62
2024/01/25 05:10:08;;;;;;;0.70;0.60;;;19.40;50.10;;;;;;5088754;28;45445;-62
2024/01/25 05:12:34;;;;;;;1.42;0.60;;;19.50;50.00;;;;;;5089008;28;45272;-62
2024/01/25 05:15:03;;;;;;;0.98;0.70;;;19.50;49.90;;;;;;5089115;28;45362;-62
2024/01/25 05:17:29;;;;;;;2.17;0.70;;;19.50;49.80;;;;;;5088677;28;45262;-63
2024/01/25 05:19:56;;;;;;;0.60;0.50;;;19.50;49.80;;;;;;5088624;28;45316;-62
2024/01/25 05:22:23;;;;;;;1.50;0.63;;;19.50;49.70;;;;;;5088713;28;45224;-62
2024/01/25 05:24:50;;;;;;;0.75;0.60;;;19.50;49.70;;;;;;5088934;28;45333;-63
2024/01/25 05:27:17;;;;;;;0.75;0.52;;;19.60;49.60;;;;;;5088391;28;46383;-62
2024/01/25 05:29:43;;;;;;;0.45;0.40;;;19.60;49.60;;;;;;5088383;28;45297;-63
2024/01/25 05:32:12;;;;;;;0.85;0.50;;;19.60;49.60;;;;;;5088524;28;45229;-62
2024/01/25 05:34:39;;;;;;;1.17;0.68;;;19.60;49.50;;;;;;5088750;28;45407;-62
2024/01/25 05:37:05;;;;;;;0.35;0.35;;;19.70;49.40;;;;;;5088132;28;45493;-63
2024/01/25 05:39:32;;;;;;;0.38;0.32;;;19.70;49.40;;;;;;5088366;28;45256;-62
2024/01/25 05:41:59;;;;;;;0.60;0.43;;;19.70;49.30;;;;;;5088225;28;45289;-62
2024/01/25 05:44:26;;;;;;;0.65;0.50;;;19.70;49.30;;;;;;5088313;27;45183;-62
2024/01/25 05:46:52;;;;;;;1.23;0.55;;;19.70;49.20;;;;;;5088220;28;45414;-62
2024/01/25 05:49:21;;;;;;;1.02;0.68;;;19.70;49.20;;;;;;5088037;28;45249;-63
2024/01/25 05:51:47;;;;;;;0.73;0.50;;;19.80;49.20;;;;;;5088273;28;45276;-63
2024/01/25 05:54:14;;;;;;;1.38;0.57;;;19.80;49.10;;;;;;5088448;28;45344;-62
2024/01/25 05:56:41;;;;;;;0.70;0.50;;;19.80;49.10;;;;;;5088098;28;46887;-62
2024/01/25 05:59:11;;;;;;;0.93;0.52;;;19.80;49.10;;;;;;5087948;28;45427;-62
2024/01/25 06:01:38;;;;;;;0.52;0.50;;;19.80;49.00;;;;;;5088022;28;45264;-62
2024/01/25 06:04:05;;;;;;;0.35;0.35;;;19.90;48.90;;;;;;5088339;28;45419;-63
2024/01/25 06:06:33;;;;;;;0.55;0.50;;;19.90;49.50;;;;;;5088046;28;46590;-62
2024/01/25 06:09:00;;;;;;;1.23;0.50;;;19.90;48.90;;;;;;5087715;28;45482;-62
2024/01/25 06:11:27;;;;;;;0.40;0.40;;;19.90;48.90;;;;;;5088084;28;45376;-62
2024/01/25 06:13:53;;;;;;;0.80;0.57;;;19.90;48.80;;;;;;5088168;28;45257;-62
2024/01/25 06:16:20;;;;;;;1.35;0.65;;;19.90;48.90;;;;;;5087579;28;46491;-64
2024/01/25 06:18:47;;;;;;;0.40;0.40;;;19.90;48.90;;;;;;5087729;28;45123;-62
2024/01/25 06:21:14;;;;;;;0.60;0.60;;;19.90;48.90;;;;;;5087697;28;45383;-62
2024/01/25 06:23:42;;;;;;;0.40;0.40;;;19.80;48.90;;;;;;5088005;28;45416;-63
2024/01/25 06:26:08;;;;;;;1.02;0.38;;;19.80;48.90;;;;;;5087633;28;46476;-62
2024/01/25 06:28:35;;;;;;;0.40;0.40;;;19.80;49.00;;;;;;5087795;28;45324;-62
2024/01/25 06:31:02;;;;;;;1.05;0.40;;;19.80;49.00;;;;;;5087493;28;45254;-62
2024/01/25 06:33:29;;;;;;;0.65;0.50;;;19.70;49.00;;;;;;5087912;28;45515;-62
2024/01/25 06:35:56;;;;;;;0.73;0.60;;;19.70;49.00;;;;;;5087420;28;45535;-62
2024/01/25 06:38:23;;;;;;;0.28;0.28;;;19.70;49.10;;;;;;5087620;28;45313;-62
2024/01/25 06:40:51;;;;;;;0.85;0.50;;;19.70;49.10;;;;;;5087190;28;45529;-63
2024/01/25 06:43:18;;;;;;;0.52;0.40;;;19.70;49.20;;;;;;5087724;28;45408;-62
2024/01/25 06:45:45;;;;;;;0.65;0.50;;;19.70;49.80;;;;;;5087315;28;45530;-62
2024/01/25 06:48:12;;;;;;;0.80;0.50;;;19.60;49.20;;;;;;5087308;28;45461;-63
2024/01/25 06:50:39;;;;;;;1.85;0.60;;;19.60;49.30;;;;;;5087238;28;45266;-63
2024/01/25 06:53:05;;;;;;;0.30;0.30;;;19.60;49.30;;;;;;5087562;28;45416;-63
2024/01/25 06:55:32;;;;;;;0.40;0.40;;;19.50;49.30;;;;;;5086684;27;47356;-63
2024/01/25 06:58:04;;;;;;;0.82;0.50;;;19.50;49.30;;;;;;5086776;28;45364;-63
2024/01/25 07:00:31;;;;;;;0.60;0.40;;;19.50;49.40;;;;;;5087099;28;45355;-63
2024/01/25 07:02:57;;;;;;;0.90;0.52;;;19.50;49.40;;;;;;5087537;28;45452;-62
2024/01/25 07:05:24;;;;;;;1.00;0.60;;;19.50;50.10;;;;;;5087099;28;45282;-63
2024/01/25 07:07:51;;;;;;;0.50;0.50;;;19.50;49.50;;;;;;5086862;28;45327;-62
2024/01/25 07:10:18;;;;;;;1.02;0.40;;;19.50;49.60;;;;;;5087111;28;45336;-62
2024/01/25 07:12:45;;;;;;;0.40;0.40;;;19.40;49.50;;;;;;5087221;28;45418;-63
2024/01/25 07:15:13;;;;;;;0.68;0.60;;;19.40;49.60;;;;;;5086791;28;46377;-63
2024/01/25 07:17:41;;;;;;;0.90;0.50;;;19.40;49.70;;;;;;5087089;28;45310;-63
2024/01/25 07:20:08;;;;;;;0.60;0.40;;;19.30;50.20;;;;;;5086902;28;45353;-63
2024/01/25 07:22:35;;;;;;;0.40;0.40;;;19.30;49.70;;;;;;5087131;28;45229;-62
2024/01/25 07:25:02;;;;;;;0.52;0.52;;;19.30;49.70;;;;;;5086542;28;46359;-63
2024/01/25 07:27:29;;;;;;;1.08;0.60;;;19.30;49.80;;;;;;5086673;28;45313;-62
2024/01/25 07:29:56;;;;;;;0.52;0.52;;;19.30;49.90;;;;;;5086731;28;45425;-62
2024/01/25 07:32:25;;;;;;;0.50;0.50;;;19.30;49.80;;;;;;5086989;28;45400;-62
2024/01/25 07:34:51;;;;;;;1.38;0.65;;;19.30;49.70;;;;;;5086522;28;46632;-62
2024/01/25 07:37:19;;;;;;;0.80;0.40;;;19.30;49.70;;;;;;5086606;28;45323;-62
2024/01/25 07:39:46;;;;;;;0.50;0.40;;;19.40;49.60;;;;;;5086538;28;45317;-62
2024/01/25 07:42:13;;;;;;;1.73;0.68;;;19.50;49.40;;;;;;5086626;28;45676;-62
2024/01/25 07:44:39;;;;;;;0.75;0.35;;;19.60;49.30;;;;;;5086826;28;45472;-62
2024/01/25 07:47:06;;;;;;;0.47;0.45;;;19.60;49.10;;;;;;5090306;28;45314;-62
2024/01/25 07:49:34;;;;;;;0.40;0.40;;;19.60;48.90;;;;;;5086979;28;45386;-61
2024/01/25 07:52:01;;;;;;;1.38;0.68;;;19.70;48.90;;;;;;5086827;28;45253;-61
2024/01/25 07:54:28;;;;;;;0.93;0.47;;;19.80;48.80;;;;;;5086200;28;47320;-61
2024/01/25 07:56:55;;;;;;;0.50;0.50;;;19.80;48.70;;;;;;5086601;28;45347;-61
2024/01/25 07:59:22;;;;;;;0.63;0.50;;;19.80;48.60;;;;;;5086259;28;45315;-61
2024/01/25 08:01:49;;;;;;;0.88;0.45;;;19.80;48.60;;;;;;5086442;28;45435;-61
2024/01/25 08:04:16;;;;;;;0.90;0.60;;;19.80;48.50;;;;;;5086037;28;45356;-61
2024/01/25 08:06:44;;;;;;;2.22;0.55;;;19.90;48.50;;;;;;5086085;28;45312;-61
2024/01/25 08:09:11;;;;;;;0.45;0.40;;;19.90;48.40;;;;;;5086057;28;45252;-61
2024/01/25 08:11:38;;;;;;;0.40;0.40;;;19.90;48.30;;;;;;5086140;28;45251;-61
2024/01/25 08:14:05;;;;;;;0.30;0.30;;;19.90;48.30;;;;;;5085932;28;45457;-61
2024/01/25 08:16:31;;;;;;;0.50;0.50;;;19.90;48.30;;;;;;5085906;28;45298;-61
2024/01/25 08:18:59;;;;;;;0.73;0.55;;;20.00;48.30;;;;;;5086204;28;45257;-61
2024/01/25 08:21:26;;;;;;;1.75;0.73;;;20.00;48.20;;;;;;5086120;28;45369;-61
2024/01/25 08:23:54;;;;;;;1.23;0.70;;;20.00;48.20;;;;;;5085792;28;45318;-62
2024/01/25 08:26:21;;;;;;;0.60;0.60;;;20.00;48.10;;;;;;5085868;28;45334;-61
2024/01/25 08:28:47;;;;;;;0.35;0.35;;;20.00;48.10;;;;;;5085680;28;45261;-61
2024/01/25 08:31:14;;;;;;;1.00;0.60;;;20.00;48.10;;;;;;5085730;28;45266;-63
2024/01/25 08:33:43;;;;;;;0.52;0.52;;;20.10;48.20;;;;;;5085706;28;47587;-61
2024/01/25 08:36:10;;;;;;;1.13;0.50;;;20.00;48.10;;;;;;5085588;28;45352;-62
2024/01/25 08:38:37;;;;;;;1.60;0.65;;;20.00;48.10;;;;;;5085804;28;45261;-62
2024/01/25 08:41:06;;;;;;;3.45;0.57;;;20.00;48.10;;;;;;5089089;27;45407;-62
2024/01/25 08:43:32;;;;;;;0.65;0.55;;;20.00;48.20;;;;;;5087494;27;46399;-61
2024/01/25 08:45:59;;;;;;;0.85;0.45;;;20.00;48.20;;;;;;5087251;27;45333;-61
2024/01/25 08:48:26;;;;;;;1.08;0.68;;;20.00;48.20;;;;;;5106243;27;45378;-61
2024/01/25 08:50:54;;;;;;;0.60;0.60;;;20.00;48.30;;;;;;5106453;27;45405;-61
2024/01/25 08:53:22;;;;;;;0.70;0.68;;;19.90;48.30;;;;;;5105940;27;45470;-61
2024/01/25 08:55:49;;;;;;;0.57;0.50;;;19.90;48.30;;;;;;5086316;27;45367;-62
2024/01/25 08:58:17;;;;;;;0.70;0.70;;;19.90;48.40;;;;;;5088086;27;45358;-62
2024/01/25 09:00:44;;;;;;;1.27;1.00;;;19.90;48.50;;;;;;5106166;27;45370;-61
2024/01/25 09:03:11;;;;;;;2.25;0.85;;;19.90;48.60;;;;;;5105739;27;46393;-61
2024/01/25 09:05:41;;;;;;;1.20;1.10;;;19.80;48.60;;;;;;5105800;27;45331;-62
2024/01/25 09:08:08;;;;;;;2.05;0.90;;;19.80;48.70;;;;;;5101675;27;45525;-62
2024/01/25 09:10:33;;;;;;;0.77;0.77;;;19.80;48.70;;;;;;5095735;27;45511;-61
2024/01/25 09:13:00;;;;;;;1.20;1.02;;;19.80;48.90;;;;;;5096977;27;46540;-62
2024/01/25 09:15:28;;;;;;;1.38;1.00;;;19.80;49.00;;;;;;5096159;27;45269;-62
2024/01/25 09:17:55;;;;;;;5.18;1.13;;;19.80;49.10;;;;;;5093198;27;45440;-62
2024/01/25 09:20:22;;;;;;;1.52;1.20;;;19.80;49.10;;;;;;5094548;27;45604;-64
2024/01/25 09:22:49;;;;;;;2.63;1.25;;;19.80;49.10;;;;;;5088203;28;45340;-62
2024/01/25 09:25:15;;;;;;;1.13;0.98;;;19.70;49.10;;;;;;5104104;27;45261;-62
2024/01/25 09:27:42;;;;;;;1.20;1.10;;;19.70;49.20;;;;;;5094208;27;45351;-61
2024/01/25 09:30:10;;;;;;;1.42;1.10;;;19.70;49.20;;;;;;5090605;27;45699;-61
2024/01/25 09:32:38;;;;;;;1.23;1.13;;;19.70;49.90;;;;;;5096672;27;46413;-60
2024/01/25 09:35:05;;;;;;;1.95;1.15;;;19.70;49.30;;;;;;5092648;27;45260;-62
2024/01/25 09:37:32;;;;;;;1.20;1.10;;;19.70;49.40;;;;;;5099652;27;45364;-61
2024/01/25 09:39:59;;;;;;;1.85;1.35;;;19.60;49.40;;;;;;5093821;27;45461;-61
2024/01/25 09:42:26;;;;;;;3.10;1.50;;;19.60;49.50;;;;;;5108301;27;45301;-61
2024/01/25 09:44:53;;;;;;;1.35;1.17;;;19.60;49.50;;;;;;5108723;27;45416;-62
2024/01/25 09:47:21;;;;;;;6.45;1.75;;;19.60;49.60;;;;;;5108866;27;45508;-61
2024/01/25 09:49:49;;;;;;;1.85;1.30;;;19.50;49.70;;;;;;5091668;27;45400;-62
2024/01/25 09:52:16;;;;;;;1.40;1.30;;;19.60;49.80;;;;;;5085062;28;46850;-61
2024/01/25 09:54:43;;;;;;;1.80;1.25;;;19.50;49.80;;;;;;5087854;28;45415;-61
2024/01/25 09:57:13;;;;;;;4.03;1.45;;;19.60;50.00;;;;;;5088203;28;45256;-61
2024/01/25 09:59:40;;;;;;;1.67;1.55;;;19.60;49.90;;;;;;5088121;28;45475;-61
2024/01/25 10:02:07;;;;;;;4.35;1.45;;;19.50;50.10;;;;;;5085036;27;47301;-62
2024/01/25 10:04:34;;;;;;;3.45;1.55;;;19.60;49.90;;;;;;5094068;27;45363;-62
2024/01/25 10:07:03;;;;;;;1.55;1.42;;;19.60;49.80;;;;;;5087959;28;45317;-61
2024/01/25 10:09:29;;;;;;;2.08;1.73;;;19.60;49.70;;;;;;5087997;28;45389;-61
2024/01/25 10:11:56;;;;;;;2.30;1.60;;;19.70;49.60;;;;;;5087507;28;46310;-61
2024/01/25 10:14:23;;;;;;;2.40;1.58;;;19.80;49.50;;;;;;5087439;28;45439;-61
2024/01/25 10:16:50;;;;;;;2.70;1.40;;;19.90;49.40;;;;;;5087776;28;45190;-61
2024/01/25 10:19:17;;;;;;;5.00;2.03;;;20.00;49.20;;;;;;5079728;28;45258;-62
2024/01/25 10:21:44;;;;;;;3.50;1.98;;;20.00;49.00;;;;;;5087580;28;45353;-61
2024/01/25 10:24:13;;;;;;;1.75;1.65;;;20.10;48.90;;;;;;5087256;28;45295;-61
2024/01/25 10:26:41;;;;;;;1.80;1.67;;;20.10;48.90;;;;;;5087075;28;45360;-61
2024/01/25 10:29:10;;;;;;;3.38;1.95;;;20.20;48.90;;;;;;5099017;27;45527;-62
2024/01/25 10:31:38;;;;;;;3.95;2.22;;;20.20;49.30;;;;;;5088753;27;45363;-62
2024/01/25 10:34:05;;;;;;;4.68;2.22;;;20.20;48.80;;;;;;5089707;27;45430;-61
2024/01/25 10:36:32;;;;;;;2.53;1.95;;;20.30;48.70;;;;;;5087016;28;45530;-61
2024/01/25 10:38:59;;;;;;;4.28;2.60;;;20.30;48.60;;;;;;5092356;27;45241;-62
2024/01/25 10:41:27;;;;;;;5.88;2.75;;;20.30;48.70;;;;;;5085858;28;46568;-61
2024/01/25 10:43:54;;;;;;;3.88;2.30;;;20.30;48.70;;;;;;5084499;28;45313;-61
2024/01/25 10:46:21;;;;;;;6.38;2.42;;;20.30;48.70;;;;;;5086977;28;45307;-62
2024/01/25 10:48:48;;;;;;;4.70;2.28;;;20.30;48.70;;;;;;5087085;28;45435;-62
2024/01/25 10:51:18;;;;;;;2.95;2.22;;;20.30;48.70;;;;;;5087383;28;45438;-63
2024/01/25 10:53:45;;;;;;;3.72;2.10;;;20.30;48.70;;;;;;5086946;28;45323;-61
2024/01/25 10:56:13;;;;;;;2.88;2.22;;;20.30;48.80;;;;;;5087230;28;45334;-62
2024/01/25 10:58:43;;;;;;;4.72;2.53;;;20.30;48.90;;;;;;5087488;28;45167;-63
2024/01/25 11:01:11;;;;;;;3.53;1.90;;;20.30;48.80;;;;;;5086654;27;45379;-61
2024/01/25 11:03:39;;;;;;;2.13;1.83;;;20.30;48.90;;;;;;5096081;27;45359;-61
2024/01/25 11:06:10;;;;;;;3.72;2.17;;;20.30;49.10;;;;;;5080708;27;45479;-62
2024/01/25 11:08:38;;;;;;;6.18;2.30;;;20.20;49.20;;;;;;5092984;27;45629;-62
2024/01/25 11:11:06;;;;;;;7.43;2.40;;;20.20;49.30;;;;;;5103053;27;45481;-61
2024/01/25 11:13:33;;;;;;;7.07;2.42;;;20.20;49.80;;;;;;5107428;27;45306;-61
2024/01/25 11:16:13;;;;;;;5.78;2.45;;;20.20;49.90;;;;;;5107552;27;45318;-61
2024/01/25 11:18:49;;;;;;;6.80;2.33;;;20.20;49.80;;;;;;5101834;27;45423;-61
2024/01/25 11:21:24;;;;;;;4.07;2.15;;;20.20;49.80;;;;;;5086681;28;45760;-61
2024/01/25 11:24:00;;;;;;;6.30;1.60;;;20.20;49.90;;;;;;5086700;28;45324;-62
2024/01/25 11:26:27;;;;;;;3.90;1.48;;;20.20;49.90;;;;;;5089596;27;45398;-62
2024/01/25 11:28:54;;;;;;;3.10;1.08;;;20.10;49.80;;;;;;5107500;27;45292;-62
2024/01/25 11:31:22;;;;;;;1.15;0.93;;;20.10;50.00;;;;;;5096689;27;46474;-62
2024/01/25 11:33:49;;;;;;;6.70;3.25;;;20.00;50.10;;;;;;5107181;27;45232;-60
2024/01/25 11:36:16;;;;;;;7.75;5.45;;;19.90;50.10;;;;;;5090364;27;45330;-60
2024/01/25 11:38:42;;;;;;;7.53;4.20;;;19.90;50.30;;;;;;5086916;28;45418;-60
2024/01/25 11:41:09;;;;;;;8.73;3.88;;;19.90;50.30;;;;;;5086434;27;46211;-60
2024/01/25 11:43:36;;;;;;;7.25;3.65;;;19.90;50.30;;;;;;5086065;27;45316;-60
2024/01/25 11:46:03;;;;;;;11.10;3.13;;;19.90;50.30;;;;;;5094145;27;45462;-60
2024/01/25 11:48:31;;;;;;;5.10;2.67;;;19.90;50.20;;;;;;5075868;27;45546;-61
2024/01/25 11:51:00;;;;;;;5.97;2.67;;;19.90;50.30;;;;;;5089015;27;45347;-61
2024/01/25 11:53:27;;;;;;;3.75;2.70;;;19.90;50.40;;;;;;5086253;28;45544;-60
2024/01/25 11:55:54;;;;;;;3.67;2.08;;;19.90;50.40;;;;;;5086293;28;45311;-62
2024/01/25 11:58:21;;;;;;;5.20;2.83;;;19.90;50.40;;;;;;5086356;28;45475;-61
2024/01/25 12:00:48;;;;;;;4.18;2.50;;;19.80;50.40;;;;;;5085122;27;46732;-61
2024/01/25 12:03:15;;;;;;;6.60;2.83;;;19.80;50.30;;;;;;5085205;28;45398;-61
2024/01/25 12:05:44;;;;;;;5.38;2.58;;;19.80;50.40;;;;;;5086236;28;45273;-61
2024/01/25 12:08:11;;;;;;;5.57;2.80;;;19.80;50.30;;;;;;5085400;28;45392;-61
2024/01/25 12:10:38;;;;;;;6.38;2.60;;;19.80;50.30;;;;;;5085675;28;47331;-61
2024/01/25 12:13:06;;;;;;;5.38;2.67;;;19.80;50.30;;;;;;5085894;28;45367;-61
2024/01/25 12:15:33;;;;;;;4.65;2.63;;;19.80;50.30;;;;;;5099082;27;45313;-61
2024/01/25 12:18:01;;;;;;;2.97;2.30;;;19.80;50.40;;;;;;5098259;27;45243;-60
2024/01/25 12:20:28;;;;;;;5.38;1.98;;;19.80;50.40;;;;;;5100194;27;45457;-61
2024/01/25 12:22:59;;;;;;;7.80;2.90;;;19.90;50.30;;;;;;5104307;27;45411;-61
2024/01/25 12:25:25;;;;;;;2.40;2.08;;;19.90;50.10;;;;;;5094768;27;45319;-60
2024/01/25 12:27:52;;;;;;;5.38;2.95;;;20.00;50.00;;;;;;5086289;28;45394;-61
2024/01/25 12:30:19;;;;;;;3.63;1.92;;;20.10;50.00;;;;;;5088693;27;46278;-61
2024/01/25 12:32:48;;;;;;;3.05;2.00;;;20.10;49.80;;;;;;5085736;27;45241;-61
2024/01/25 12:35:15;;;;;;;6.97;2.20;;;20.20;49.70;;;;;;5090438;27;45445;-62
2024/01/25 12:37:42;;;;;;;3.58;2.22;;;20.20;49.60;;;;;;5104400;27;45314;-62
2024/01/25 12:40:11;;;;;;;5.35;2.40;;;20.20;49.40;;;;;;5098587;27;45269;-62
2024/01/25 12:42:37;;;;;;;2.58;1.95;;;20.30;49.40;;;;;;5089462;27;45262;-63
2024/01/25 12:45:05;;;;;;;6.63;2.83;;;20.30;49.40;;;;;;5091768;27;45261;-64
2024/01/25 12:47:32;;;;;;;7.93;2.53;;;20.40;49.60;;;;;;5106011;27;45407;-62